sensor_id;sensor_type;location;lat;lon;timestamp;temperature;humidity
9466;DHT22;4771;48.726;9.006;2023-12-22T00:02:24;7.10;99.90
9466;DHT22;4771;48.726;9.006;2023-12-22T00:04:51;7.20;99.90
9466;DHT22;4771;48.726;9.006;2023-12-22T00:07:18;7.20;99.90
9466;DHT22;4771;48.726;9.006;2023-12-22T00:09:46;7.20;99.90
9466;DHT22;4771;48.726;9.006;2023-12-22T00:12:13;7.20;99.90
9466;DHT22;4771;48.726;9.006;2023-12-22T00:14:39;7.20;99.90
9466;DHT22;4771;48.726;9.006;2023-12-22T00:17:06;7.20;99.90
9466;DHT22;4771;48.726;9.006;2023-12-22T00:19:35;7.20;99.90
9466;DHT22;4771;48.726;9.006;2023-12-22T00:22:01;7.20;99.90
9466;DHT22;4771;48.726;9.006;2023-12-22T00:24:29;7.30;99.90
9466;DHT22;4771;48.726;9.006;2023-12-22T00:26:55;7.20;99.90
9466;DHT22;4771;48.726;9.006;2023-12-22T00:29:22;7.30;99.90
9466;DHT22;4771;48.726;9.006;2023-12-22T00:31:49;7.30;99.90
9466;DHT22;4771;48.726;9.006;2023-12-22T00:34:16;7.30;99.90
9466;DHT22;4771;48.726;9.006;2023-12-22T00:36:46;7.20;99.90
9466;DHT22;4771;48.726;9.006;2023-12-22T00:39:13;7.20;99.90
9466;DHT22;4771;48.726;9.006;2023-12-22T00:41:40;7.20;99.90
9466;DHT22;4771;48.726;9.006;2023-12-22T00:44:07;7.20;99.90
9466;DHT22;4771;48.726;9.006;2023-12-22T00:46:33;7.20;99.90
9466;DHT22;4771;48.726;9.006;2023-12-22T00:49:00;7.30;99.90
9466;DHT22;4771;48.726;9.006;2023-12-22T00:51:27;7.20;99.90
9466;DHT22;4771;48.726;9.006;2023-12-22T00:53:55;7.20;99.90
9466;DHT22;4771;48.726;9.006;2023-12-22T00:56:22;7.20;99.90
9466;DHT22;4771;48.726;9.006;2023-12-22T00:58:49;7.20;99.90
9466;DHT22;4771;48.726;9.006;2023-12-22T01:01:16;7.20;99.90
9466;DHT22;4771;48.726;9.006;2023-12-22T01:03:43;7.30;99.90
9466;DHT22;4771;48.726;9.006;2023-12-22T01:06:10;7.30;99.90
9466;DHT22;4771;48.726;9.006;2023-12-22T01:08:37;7.20;99.90
9466;DHT22;4771;48.726;9.006;2023-12-22T01:11:05;7.30;99.90
9466;DHT22;4771;48.726;9.006;2023-12-22T01:13:32;7.20;99.90
9466;DHT22;4771;48.726;9.006;2023-12-22T01:15:59;7.20;99.90
9466;DHT22;4771;48.726;9.006;2023-12-22T01:18:26;7.20;99.90
9466;DHT22;4771;48.726;9.006;2023-12-22T01:20:55;7.20;99.90
9466;DHT22;4771;48.726;9.006;2023-12-22T01:23:22;7.10;99.90
9466;DHT22;4771;48.726;9.006;2023-12-22T01:25:50;7.20;99.90
9466;DHT22;4771;48.726;9.006;2023-12-22T01:28:19;7.20;99.90
9466;DHT22;4771;48.726;9.006;2023-12-22T01:30:45;7.20;99.90
9466;DHT22;4771;48.726;9.006;2023-12-22T01:33:13;7.20;99.90
9466;DHT22;4771;48.726;9.006;2023-12-22T01:35:39;7.20;99.90
9466;DHT22;4771;48.726;9.006;2023-12-22T01:38:06;7.20;99.90
9466;DHT22;4771;48.726;9.006;2023-12-22T01:40:33;7.10;99.90
9466;DHT22;4771;48.726;9.006;2023-12-22T01:43:01;7.10;99.90
9466;DHT22;4771;48.726;9.006;2023-12-22T01:45:30;7.10;99.90
9466;DHT22;4771;48.726;9.006;2023-12-22T01:47:57;7.10;99.90
9466;DHT22;4771;48.726;9.006;2023-12-22T01:50:24;7.10;99.90
9466;DHT22;4771;48.726;9.006;2023-12-22T01:52:51;7.10;99.90
9466;DHT22;4771;48.726;9.006;2023-12-22T01:55:18;7.10;99.90
9466;DHT22;4771;48.726;9.006;2023-12-22T01:57:46;7.10;99.90
9466;DHT22;4771;48.726;9.006;2023-12-22T02:00:14;7.10;99.90
9466;DHT22;4771;48.726;9.006;2023-12-22T02:02:42;7.10;99.90
9466;DHT22;4771;48.726;9.006;2023-12-22T02:05:09;7.10;99.90
9466;DHT22;4771;48.726;9.006;2023-12-22T02:07:38;7.00;99.90
9466;DHT22;4771;48.726;9.006;2023-12-22T02:10:07;7.10;99.90
9466;DHT22;4771;48.726;9.006;2023-12-22T02:12:34;7.00;99.90
9466;DHT22;4771;48.726;9.006;2023-12-22T02:15:01;7.00;99.90
9466;DHT22;4771;48.726;9.006;2023-12-22T02:17:33;7.00;99.90
9466;DHT22;4771;48.726;9.006;2023-12-22T02:20:06;7.00;99.90
9466;DHT22;4771;48.726;9.006;2023-12-22T02:22:35;7.00;99.90
9466;DHT22;4771;48.726;9.006;2023-12-22T02:25:01;6.90;99.90
9466;DHT22;4771;48.726;9.006;2023-12-22T02:27:34;6.90;99.90
9466;DHT22;4771;48.726;9.006;2023-12-22T02:30:08;7.00;99.90
9466;DHT22;4771;48.726;9.006;2023-12-22T02:32:38;6.90;99.90
9466;DHT22;4771;48.726;9.006;2023-12-22T02:35:10;6.90;99.90
9466;DHT22;4771;48.726;9.006;2023-12-22T02:37:39;7.00;99.90
9466;DHT22;4771;48.726;9.006;2023-12-22T02:40:07;7.00;99.90
9466;DHT22;4771;48.726;9.006;2023-12-22T02:42:36;7.00;99.90
9466;DHT22;4771;48.726;9.006;2023-12-22T02:45:04;7.00;99.90
9466;DHT22;4771;48.726;9.006;2023-12-22T02:47:31;7.00;99.90
9466;DHT22;4771;48.726;9.006;2023-12-22T02:49:59;7.00;99.90
9466;DHT22;4771;48.726;9.006;2023-12-22T02:52:26;7.00;99.90
9466;DHT22;4771;48.726;9.006;2023-12-22T02:54:54;7.00;99.90
9466;DHT22;4771;48.726;9.006;2023-12-22T02:57:21;7.00;99.90
9466;DHT22;4771;48.726;9.006;2023-12-22T02:59:48;7.00;99.90
9466;DHT22;4771;48.726;9.006;2023-12-22T03:02:15;7.10;99.90
9466;DHT22;4771;48.726;9.006;2023-12-22T03:04:42;7.10;99.90
9466;DHT22;4771;48.726;9.006;2023-12-22T03:07:09;7.00;99.90
9466;DHT22;4771;48.726;9.006;2023-12-22T03:09:36;7.10;99.90
9466;DHT22;4771;48.726;9.006;2023-12-22T03:12:05;7.10;99.90
9466;DHT22;4771;48.726;9.006;2023-12-22T03:14:32;7.10;99.90
9466;DHT22;4771;48.726;9.006;2023-12-22T03:16:59;7.20;99.90
9466;DHT22;4771;48.726;9.006;2023-12-22T03:19:26;7.20;99.90
9466;DHT22;4771;48.726;9.006;2023-12-22T03:21:52;7.10;99.90
9466;DHT22;4771;48.726;9.006;2023-12-22T03:24:19;7.10;99.90
9466;DHT22;4771;48.726;9.006;2023-12-22T03:26:48;7.10;99.90
9466;DHT22;4771;48.726;9.006;2023-12-22T03:29:16;7.10;99.90
9466;DHT22;4771;48.726;9.006;2023-12-22T03:31:43;7.10;99.90
9466;DHT22;4771;48.726;9.006;2023-12-22T03:34:10;7.00;99.90
9466;DHT22;4771;48.726;9.006;2023-12-22T03:36:37;7.00;99.90
9466;DHT22;4771;48.726;9.006;2023-12-22T03:39:04;7.00;99.90
9466;DHT22;4771;48.726;9.006;2023-12-22T03:41:31;7.00;99.90
9466;DHT22;4771;48.726;9.006;2023-12-22T03:43:58;7.00;99.90
9466;DHT22;4771;48.726;9.006;2023-12-22T03:46:26;7.10;99.90
9466;DHT22;4771;48.726;9.006;2023-12-22T03:48:53;7.10;99.90
9466;DHT22;4771;48.726;9.006;2023-12-22T03:51:20;7.10;99.90
9466;DHT22;4771;48.726;9.006;2023-12-22T03:53:47;7.10;99.90
9466;DHT22;4771;48.726;9.006;2023-12-22T03:56:14;7.10;99.90
9466;DHT22;4771;48.726;9.006;2023-12-22T03:58:41;7.00;99.90
9466;DHT22;4771;48.726;9.006;2023-12-22T04:01:07;7.00;99.90
9466;DHT22;4771;48.726;9.006;2023-12-22T04:03:36;7.00;99.90
9466;DHT22;4771;48.726;9.006;2023-12-22T04:06:03;7.10;99.90
9466;DHT22;4771;48.726;9.006;2023-12-22T04:08:30;7.00;99.90
9466;DHT22;4771;48.726;9.006;2023-12-22T04:10:57;7.00;99.90
9466;DHT22;4771;48.726;9.006;2023-12-22T04:13:24;6.90;99.90
9466;DHT22;4771;48.726;9.006;2023-12-22T04:15:51;7.00;99.90
9466;DHT22;4771;48.726;9.006;2023-12-22T04:18:17;6.90;99.90
9466;DHT22;4771;48.726;9.006;2023-12-22T04:20:46;6.80;99.90
9466;DHT22;4771;48.726;9.006;2023-12-22T04:23:15;6.70;99.90
9466;DHT22;4771;48.726;9.006;2023-12-22T04:25:42;6.60;99.90
9466;DHT22;4771;48.726;9.006;2023-12-22T04:28:09;6.60;99.90
9466;DHT22;4771;48.726;9.006;2023-12-22T04:30:36;6.50;99.90
9466;DHT22;4771;48.726;9.006;2023-12-22T04:33:03;6.50;99.90
9466;DHT22;4771;48.726;9.006;2023-12-22T04:35:30;6.50;99.90
9466;DHT22;4771;48.726;9.006;2023-12-22T04:37:58;6.50;99.90
9466;DHT22;4771;48.726;9.006;2023-12-22T04:40:25;6.50;99.90
9466;DHT22;4771;48.726;9.006;2023-12-22T04:42:53;6.50;99.90
9466;DHT22;4771;48.726;9.006;2023-12-22T04:45:20;6.60;99.90
9466;DHT22;4771;48.726;9.006;2023-12-22T04:47:47;6.60;99.90
9466;DHT22;4771;48.726;9.006;2023-12-22T04:50:14;6.60;99.90
9466;DHT22;4771;48.726;9.006;2023-12-22T04:52:41;6.70;99.90
9466;DHT22;4771;48.726;9.006;2023-12-22T04:55:09;6.70;99.90
9466;DHT22;4771;48.726;9.006;2023-12-22T04:57:36;6.70;99.90
9466;DHT22;4771;48.726;9.006;2023-12-22T05:00:03;6.70;99.90
9466;DHT22;4771;48.726;9.006;2023-12-22T05:02:30;6.70;99.90
9466;DHT22;4771;48.726;9.006;2023-12-22T05:04:58;6.80;99.90
9466;DHT22;4771;48.726;9.006;2023-12-22T05:07:24;6.70;99.90
9466;DHT22;4771;48.726;9.006;2023-12-22T05:09:51;6.80;99.90
9466;DHT22;4771;48.726;9.006;2023-12-22T05:12:21;6.80;99.90
9466;DHT22;4771;48.726;9.006;2023-12-22T05:14:48;6.80;99.90
9466;DHT22;4771;48.726;9.006;2023-12-22T05:17:15;6.80;99.90
9466;DHT22;4771;48.726;9.006;2023-12-22T05:19:42;6.80;99.90
9466;DHT22;4771;48.726;9.006;2023-12-22T05:22:08;6.80;99.90
9466;DHT22;4771;48.726;9.006;2023-12-22T05:24:37;6.80;99.90
9466;DHT22;4771;48.726;9.006;2023-12-22T05:27:04;6.80;99.90
9466;DHT22;4771;48.726;9.006;2023-12-22T05:29:32;6.80;99.90
9466;DHT22;4771;48.726;9.006;2023-12-22T05:32:00;6.80;99.90
9466;DHT22;4771;48.726;9.006;2023-12-22T05:34:27;6.90;99.90
9466;DHT22;4771;48.726;9.006;2023-12-22T05:36:54;6.90;99.90
9466;DHT22;4771;48.726;9.006;2023-12-22T05:39:21;6.90;99.90
9466;DHT22;4771;48.726;9.006;2023-12-22T05:41:47;7.00;99.90
9466;DHT22;4771;48.726;9.006;2023-12-22T05:44:14;6.90;99.90
9466;DHT22;4771;48.726;9.006;2023-12-22T05:46:43;7.00;99.90
9466;DHT22;4771;48.726;9.006;2023-12-22T05:49:09;7.00;99.90
9466;DHT22;4771;48.726;9.006;2023-12-22T05:51:37;7.00;99.90
9466;DHT22;4771;48.726;9.006;2023-12-22T05:54:05;7.00;99.90
9466;DHT22;4771;48.726;9.006;2023-12-22T05:56:31;7.10;99.90
9466;DHT22;4771;48.726;9.006;2023-12-22T05:58:59;7.10;99.90
9466;DHT22;4771;48.726;9.006;2023-12-22T06:01:26;7.10;99.90
9466;DHT22;4771;48.726;9.006;2023-12-22T06:03:54;7.10;99.90
9466;DHT22;4771;48.726;9.006;2023-12-22T06:06:21;7.10;99.90
9466;DHT22;4771;48.726;9.006;2023-12-22T06:08:48;7.20;99.90
9466;DHT22;4771;48.726;9.006;2023-12-22T06:11:15;7.00;99.90
9466;DHT22;4771;48.726;9.006;2023-12-22T06:13:42;7.00;99.90
9466;DHT22;4771;48.726;9.006;2023-12-22T06:16:11;7.00;99.90
9466;DHT22;4771;48.726;9.006;2023-12-22T06:18:39;7.00;99.90
9466;DHT22;4771;48.726;9.006;2023-12-22T06:21:08;7.00;99.90
9466;DHT22;4771;48.726;9.006;2023-12-22T06:23:35;7.00;99.90
9466;DHT22;4771;48.726;9.006;2023-12-22T06:26:08;7.00;99.90
9466;DHT22;4771;48.726;9.006;2023-12-22T06:28:35;7.00;99.90
9466;DHT22;4771;48.726;9.006;2023-12-22T06:31:03;7.00;99.90
9466;DHT22;4771;48.726;9.006;2023-12-22T06:33:30;7.00;99.90
9466;DHT22;4771;48.726;9.006;2023-12-22T06:35:57;7.10;99.90
9466;DHT22;4771;48.726;9.006;2023-12-22T06:38:26;7.10;99.90
9466;DHT22;4771;48.726;9.006;2023-12-22T06:40:53;7.10;99.90
9466;DHT22;4771;48.726;9.006;2023-12-22T06:43:20;7.10;99.90
9466;DHT22;4771;48.726;9.006;2023-12-22T06:45:47;7.00;99.90
9466;DHT22;4771;48.726;9.006;2023-12-22T06:48:14;7.10;99.90
9466;DHT22;4771;48.726;9.006;2023-12-22T06:50:41;7.00;99.90
9466;DHT22;4771;48.726;9.006;2023-12-22T06:53:10;6.60;99.90
9466;DHT22;4771;48.726;9.006;2023-12-22T06:55:38;6.90;99.90
9466;DHT22;4771;48.726;9.006;2023-12-22T06:58:05;6.80;99.90
9466;DHT22;4771;48.726;9.006;2023-12-22T07:00:32;6.70;99.90
9466;DHT22;4771;48.726;9.006;2023-12-22T07:02:59;6.70;99.90
9466;DHT22;4771;48.726;9.006;2023-12-22T07:05:35;6.70;99.90
9466;DHT22;4771;48.726;9.006;2023-12-22T07:08:06;6.60;99.90
9466;DHT22;4771;48.726;9.006;2023-12-22T07:10:33;6.50;99.90
9466;DHT22;4771;48.726;9.006;2023-12-22T07:13:02;6.60;99.90
9466;DHT22;4771;48.726;9.006;2023-12-22T07:15:28;6.50;99.90
9466;DHT22;4771;48.726;9.006;2023-12-22T07:17:55;6.50;99.90
9466;DHT22;4771;48.726;9.006;2023-12-22T07:20:22;6.50;99.90
9466;DHT22;4771;48.726;9.006;2023-12-22T07:22:49;6.50;99.90
9466;DHT22;4771;48.726;9.006;2023-12-22T07:25:16;6.50;99.90
9466;DHT22;4771;48.726;9.006;2023-12-22T07:27:45;6.60;99.90
9466;DHT22;4771;48.726;9.006;2023-12-22T07:30:14;6.70;99.90
9466;DHT22;4771;48.726;9.006;2023-12-22T07:32:44;6.60;99.90
9466;DHT22;4771;48.726;9.006;2023-12-22T07:35:13;6.50;99.90
9466;DHT22;4771;48.726;9.006;2023-12-22T07:37:40;6.50;99.90
9466;DHT22;4771;48.726;9.006;2023-12-22T07:40:08;6.60;99.90
9466;DHT22;4771;48.726;9.006;2023-12-22T07:42:35;6.60;99.90
9466;DHT22;4771;48.726;9.006;2023-12-22T07:45:03;6.60;99.90
9466;DHT22;4771;48.726;9.006;2023-12-22T07:47:33;6.60;99.90
9466;DHT22;4771;48.726;9.006;2023-12-22T07:50:00;6.50;99.90
9466;DHT22;4771;48.726;9.006;2023-12-22T07:52:27;6.60;99.90
9466;DHT22;4771;48.726;9.006;2023-12-22T07:54:54;6.50;99.90
9466;DHT22;4771;48.726;9.006;2023-12-22T07:57:21;6.50;99.90
9466;DHT22;4771;48.726;9.006;2023-12-22T07:59:48;6.50;99.90
9466;DHT22;4771;48.726;9.006;2023-12-22T08:02:14;6.50;99.90
9466;DHT22;4771;48.726;9.006;2023-12-22T08:04:43;6.50;99.90
9466;DHT22;4771;48.726;9.006;2023-12-22T08:07:09;6.40;99.90
9466;DHT22;4771;48.726;9.006;2023-12-22T08:09:36;6.40;99.90
9466;DHT22;4771;48.726;9.006;2023-12-22T08:12:03;6.40;99.90
9466;DHT22;4771;48.726;9.006;2023-12-22T08:14:30;6.40;99.90
9466;DHT22;4771;48.726;9.006;2023-12-22T08:16:57;6.50;99.90
9466;DHT22;4771;48.726;9.006;2023-12-22T08:19:24;6.50;99.90
9466;DHT22;4771;48.726;9.006;2023-12-22T08:21:53;6.60;99.90
9466;DHT22;4771;48.726;9.006;2023-12-22T08:24:20;6.70;99.90
9466;DHT22;4771;48.726;9.006;2023-12-22T08:26:47;6.80;99.90
9466;DHT22;4771;48.726;9.006;2023-12-22T08:29:14;6.80;99.90
9466;DHT22;4771;48.726;9.006;2023-12-22T08:31:41;6.90;99.90
9466;DHT22;4771;48.726;9.006;2023-12-22T08:34:09;6.90;99.90
9466;DHT22;4771;48.726;9.006;2023-12-22T08:36:36;6.90;99.90
9466;DHT22;4771;48.726;9.006;2023-12-22T08:39:04;6.90;99.90
9466;DHT22;4771;48.726;9.006;2023-12-22T08:41:31;6.80;99.90
9466;DHT22;4771;48.726;9.006;2023-12-22T08:44:01;6.80;99.90
9466;DHT22;4771;48.726;9.006;2023-12-22T08:46:28;6.80;99.90
9466;DHT22;4771;48.726;9.006;2023-12-22T08:48:56;6.70;99.90
9466;DHT22;4771;48.726;9.006;2023-12-22T08:51:23;6.80;99.90
9466;DHT22;4771;48.726;9.006;2023-12-22T08:53:50;6.80;99.90
9466;DHT22;4771;48.726;9.006;2023-12-22T08:56:19;6.70;99.90
9466;DHT22;4771;48.726;9.006;2023-12-22T08:58:46;6.80;99.90
9466;DHT22;4771;48.726;9.006;2023-12-22T09:01:15;6.70;99.90
9466;DHT22;4771;48.726;9.006;2023-12-22T09:03:42;6.70;99.90
9466;DHT22;4771;48.726;9.006;2023-12-22T09:06:13;6.80;99.90
9466;DHT22;4771;48.726;9.006;2023-12-22T09:08:41;6.80;99.90
9466;DHT22;4771;48.726;9.006;2023-12-22T09:11:07;6.90;99.90
9466;DHT22;4771;48.726;9.006;2023-12-22T09:13:36;6.90;99.90
9466;DHT22;4771;48.726;9.006;2023-12-22T09:16:03;7.00;99.90
9466;DHT22;4771;48.726;9.006;2023-12-22T09:18:30;7.00;99.90
9466;DHT22;4771;48.726;9.006;2023-12-22T09:20:58;7.00;99.90
9466;DHT22;4771;48.726;9.006;2023-12-22T09:23:24;7.20;99.90
9466;DHT22;4771;48.726;9.006;2023-12-22T09:25:51;7.10;99.90
9466;DHT22;4771;48.726;9.006;2023-12-22T09:28:18;7.10;99.90
9466;DHT22;4771;48.726;9.006;2023-12-22T09:30:47;7.10;99.90
9466;DHT22;4771;48.726;9.006;2023-12-22T09:33:13;7.10;99.90
9466;DHT22;4771;48.726;9.006;2023-12-22T09:35:41;7.10;99.90
9466;DHT22;4771;48.726;9.006;2023-12-22T09:38:08;7.20;99.90
9466;DHT22;4771;48.726;9.006;2023-12-22T09:40:35;7.20;99.90
9466;DHT22;4771;48.726;9.006;2023-12-22T09:43:05;7.20;99.90
9466;DHT22;4771;48.726;9.006;2023-12-22T09:45:33;7.20;99.90
9466;DHT22;4771;48.726;9.006;2023-12-22T09:48:01;7.20;99.90
9466;DHT22;4771;48.726;9.006;2023-12-22T09:50:31;7.20;99.90
9466;DHT22;4771;48.726;9.006;2023-12-22T09:53:00;7.20;99.90
9466;DHT22;4771;48.726;9.006;2023-12-22T09:55:30;7.30;99.90
9466;DHT22;4771;48.726;9.006;2023-12-22T09:57:57;7.30;99.90
9466;DHT22;4771;48.726;9.006;2023-12-22T10:00:26;7.30;99.90
9466;DHT22;4771;48.726;9.006;2023-12-22T10:02:53;7.30;99.90
9466;DHT22;4771;48.726;9.006;2023-12-22T10:05:22;7.30;99.90
9466;DHT22;4771;48.726;9.006;2023-12-22T10:07:49;7.30;99.90
9466;DHT22;4771;48.726;9.006;2023-12-22T10:10:17;7.30;99.90
9466;DHT22;4771;48.726;9.006;2023-12-22T10:12:45;7.30;99.90
9466;DHT22;4771;48.726;9.006;2023-12-22T10:15:12;7.40;99.90
9466;DHT22;4771;48.726;9.006;2023-12-22T10:17:40;7.40;99.90
9466;DHT22;4771;48.726;9.006;2023-12-22T10:20:08;7.40;99.90
9466;DHT22;4771;48.726;9.006;2023-12-22T10:22:37;7.40;99.90
9466;DHT22;4771;48.726;9.006;2023-12-22T10:25:04;7.40;99.90
9466;DHT22;4771;48.726;9.006;2023-12-22T10:27:32;7.40;99.90
9466;DHT22;4771;48.726;9.006;2023-12-22T10:29:59;7.40;99.90
9466;DHT22;4771;48.726;9.006;2023-12-22T10:32:26;7.40;99.90
9466;DHT22;4771;48.726;9.006;2023-12-22T10:34:54;7.40;99.90
9466;DHT22;4771;48.726;9.006;2023-12-22T10:37:21;7.40;99.90
9466;DHT22;4771;48.726;9.006;2023-12-22T10:39:52;7.40;99.90
9466;DHT22;4771;48.726;9.006;2023-12-22T10:42:19;7.40;99.90
9466;DHT22;4771;48.726;9.006;2023-12-22T10:44:46;7.40;99.90
9466;DHT22;4771;48.726;9.006;2023-12-22T10:47:15;7.40;99.90
9466;DHT22;4771;48.726;9.006;2023-12-22T10:49:42;7.30;99.90
9466;DHT22;4771;48.726;9.006;2023-12-22T10:52:14;7.20;99.90
9466;DHT22;4771;48.726;9.006;2023-12-22T10:54:42;7.30;99.90
9466;DHT22;4771;48.726;9.006;2023-12-22T10:57:11;7.30;99.90
9466;DHT22;4771;48.726;9.006;2023-12-22T10:59:40;7.30;99.90
9466;DHT22;4771;48.726;9.006;2023-12-22T11:02:15;7.20;99.90
9466;DHT22;4771;48.726;9.006;2023-12-22T11:04:47;7.20;99.90
9466;DHT22;4771;48.726;9.006;2023-12-22T11:07:18;7.20;99.90
9466;DHT22;4771;48.726;9.006;2023-12-22T11:09:49;7.30;99.90
9466;DHT22;4771;48.726;9.006;2023-12-22T11:12:19;7.20;99.90
9466;DHT22;4771;48.726;9.006;2023-12-22T11:14:46;7.20;99.90
9466;DHT22;4771;48.726;9.006;2023-12-22T11:17:18;7.30;99.90
9466;DHT22;4771;48.726;9.006;2023-12-22T11:19:47;7.30;99.90
9466;DHT22;4771;48.726;9.006;2023-12-22T11:22:16;7.30;99.90
9466;DHT22;4771;48.726;9.006;2023-12-22T11:24:46;7.30;99.90
9466;DHT22;4771;48.726;9.006;2023-12-22T11:27:19;7.30;99.90
9466;DHT22;4771;48.726;9.006;2023-12-22T11:29:47;7.30;99.90
9466;DHT22;4771;48.726;9.006;2023-12-22T11:32:16;7.20;99.90
9466;DHT22;4771;48.726;9.006;2023-12-22T11:34:44;7.10;99.90
9466;DHT22;4771;48.726;9.006;2023-12-22T11:37:12;7.10;99.90
9466;DHT22;4771;48.726;9.006;2023-12-22T11:39:39;7.10;99.90
9466;DHT22;4771;48.726;9.006;2023-12-22T11:42:08;7.00;99.90
9466;DHT22;4771;48.726;9.006;2023-12-22T11:44:37;6.90;99.90
9466;DHT22;4771;48.726;9.006;2023-12-22T11:47:05;6.90;99.90
9466;DHT22;4771;48.726;9.006;2023-12-22T11:49:33;6.90;99.90
9466;DHT22;4771;48.726;9.006;2023-12-22T11:52:09;6.80;99.90
9466;DHT22;4771;48.726;9.006;2023-12-22T11:54:46;6.90;99.90
9466;DHT22;4771;48.726;9.006;2023-12-22T11:57:32;6.80;99.90
9466;DHT22;4771;48.726;9.006;2023-12-22T12:00:05;6.80;99.90
9466;DHT22;4771;48.726;9.006;2023-12-22T12:02:33;6.90;99.90
9466;DHT22;4771;48.726;9.006;2023-12-22T12:05:01;6.80;99.90
9466;DHT22;4771;48.726;9.006;2023-12-22T12:07:39;6.80;99.90
9466;DHT22;4771;48.726;9.006;2023-12-22T12:10:07;6.80;99.90
9466;DHT22;4771;48.726;9.006;2023-12-22T12:12:34;6.80;99.90
9466;DHT22;4771;48.726;9.006;2023-12-22T12:15:12;6.80;99.90
9466;DHT22;4771;48.726;9.006;2023-12-22T12:17:41;6.90;99.90
9466;DHT22;4771;48.726;9.006;2023-12-22T12:20:09;6.90;99.90
9466;DHT22;4771;48.726;9.006;2023-12-22T12:22:37;6.90;99.90
9466;DHT22;4771;48.726;9.006;2023-12-22T12:25:09;6.90;99.90
9466;DHT22;4771;48.726;9.006;2023-12-22T12:27:39;7.00;99.90
9466;DHT22;4771;48.726;9.006;2023-12-22T12:30:11;6.90;99.90
9466;DHT22;4771;48.726;9.006;2023-12-22T12:32:38;6.90;99.90
9466;DHT22;4771;48.726;9.006;2023-12-22T12:35:06;6.90;99.90
9466;DHT22;4771;48.726;9.006;2023-12-22T12:37:35;6.90;99.90
9466;DHT22;4771;48.726;9.006;2023-12-22T12:40:07;7.10;99.90
9466;DHT22;4771;48.726;9.006;2023-12-22T12:42:36;6.90;99.90
9466;DHT22;4771;48.726;9.006;2023-12-22T12:45:05;7.00;99.90
9466;DHT22;4771;48.726;9.006;2023-12-22T12:47:33;7.10;99.90
9466;DHT22;4771;48.726;9.006;2023-12-22T12:50:03;7.10;99.90
9466;DHT22;4771;48.726;9.006;2023-12-22T12:52:39;7.10;99.90
9466;DHT22;4771;48.726;9.006;2023-12-22T12:55:06;7.10;99.90
9466;DHT22;4771;48.726;9.006;2023-12-22T12:57:33;7.10;99.90
9466;DHT22;4771;48.726;9.006;2023-12-22T13:00:00;7.20;99.90
9466;DHT22;4771;48.726;9.006;2023-12-22T13:02:28;7.20;99.90
9466;DHT22;4771;48.726;9.006;2023-12-22T13:04:58;7.20;99.90
9466;DHT22;4771;48.726;9.006;2023-12-22T13:07:25;7.20;99.90
9466;DHT22;4771;48.726;9.006;2023-12-22T13:09:52;7.20;99.90
9466;DHT22;4771;48.726;9.006;2023-12-22T13:12:22;7.20;99.90
9466;DHT22;4771;48.726;9.006;2023-12-22T13:14:50;7.20;99.90
9466;DHT22;4771;48.726;9.006;2023-12-22T13:17:17;7.30;99.90
9466;DHT22;4771;48.726;9.006;2023-12-22T13:19:44;7.30;99.90
9466;DHT22;4771;48.726;9.006;2023-12-22T13:22:13;7.40;99.90
9466;DHT22;4771;48.726;9.006;2023-12-22T13:24:40;7.50;99.90
9466;DHT22;4771;48.726;9.006;2023-12-22T13:27:07;7.60;99.90
9466;DHT22;4771;48.726;9.006;2023-12-22T13:29:43;7.70;99.90
9466;DHT22;4771;48.726;9.006;2023-12-22T13:32:18;7.80;99.90
9466;DHT22;4771;48.726;9.006;2023-12-22T13:34:48;7.80;99.90
9466;DHT22;4771;48.726;9.006;2023-12-22T13:37:17;8.00;99.90
9466;DHT22;4771;48.726;9.006;2023-12-22T13:39:45;8.00;99.90
9466;DHT22;4771;48.726;9.006;2023-12-22T13:42:15;8.00;99.90
9466;DHT22;4771;48.726;9.006;2023-12-22T13:44:46;8.00;99.90
9466;DHT22;4771;48.726;9.006;2023-12-22T13:47:15;8.10;99.90
9466;DHT22;4771;48.726;9.006;2023-12-22T13:49:42;8.10;99.90
9466;DHT22;4771;48.726;9.006;2023-12-22T13:55:10;8.10;99.90
9466;DHT22;4771;48.726;9.006;2023-12-22T13:57:37;8.20;99.90
9466;DHT22;4771;48.726;9.006;2023-12-22T14:00:26;8.20;99.90
9466;DHT22;4771;48.726;9.006;2023-12-22T14:02:53;8.20;99.90
9466;DHT22;4771;48.726;9.006;2023-12-22T14:05:21;8.20;99.90
9466;DHT22;4771;48.726;9.006;2023-12-22T14:07:48;8.30;99.90
9466;DHT22;4771;48.726;9.006;2023-12-22T14:10:16;8.20;99.90
9466;DHT22;4771;48.726;9.006;2023-12-22T14:12:43;8.30;99.90
9466;DHT22;4771;48.726;9.006;2023-12-22T14:15:11;8.30;99.90
9466;DHT22;4771;48.726;9.006;2023-12-22T14:17:38;8.30;99.90
9466;DHT22;4771;48.726;9.006;2023-12-22T14:20:08;8.30;99.90
9466;DHT22;4771;48.726;9.006;2023-12-22T14:22:35;8.30;99.90
9466;DHT22;4771;48.726;9.006;2023-12-22T14:25:02;8.30;99.90
9466;DHT22;4771;48.726;9.006;2023-12-22T14:27:31;8.30;99.90
9466;DHT22;4771;48.726;9.006;2023-12-22T14:29:58;8.40;99.90
9466;DHT22;4771;48.726;9.006;2023-12-22T14:32:25;8.40;99.90
9466;DHT22;4771;48.726;9.006;2023-12-22T14:34:51;8.40;99.90
9466;DHT22;4771;48.726;9.006;2023-12-22T14:37:18;8.50;99.90
9466;DHT22;4771;48.726;9.006;2023-12-22T14:39:45;8.50;99.90
9466;DHT22;4771;48.726;9.006;2023-12-22T14:42:12;8.50;99.90
9466;DHT22;4771;48.726;9.006;2023-12-22T14:44:41;8.50;99.90
9466;DHT22;4771;48.726;9.006;2023-12-22T14:47:07;8.50;99.90
9466;DHT22;4771;48.726;9.006;2023-12-22T14:49:34;8.50;99.90
9466;DHT22;4771;48.726;9.006;2023-12-22T14:52:01;8.50;99.90
9466;DHT22;4771;48.726;9.006;2023-12-22T14:54:28;8.60;99.90
9466;DHT22;4771;48.726;9.006;2023-12-22T14:56:55;8.60;99.90
9466;DHT22;4771;48.726;9.006;2023-12-22T14:59:22;8.60;99.90
9466;DHT22;4771;48.726;9.006;2023-12-22T15:01:50;8.60;99.90
9466;DHT22;4771;48.726;9.006;2023-12-22T15:04:17;8.60;99.90
9466;DHT22;4771;48.726;9.006;2023-12-22T15:06:45;8.60;99.90
9466;DHT22;4771;48.726;9.006;2023-12-22T15:09:12;8.60;99.90
9466;DHT22;4771;48.726;9.006;2023-12-22T15:11:43;8.60;99.90
9466;DHT22;4771;48.726;9.006;2023-12-22T15:14:10;8.60;99.90
9466;DHT22;4771;48.726;9.006;2023-12-22T15:16:40;8.60;99.90
9466;DHT22;4771;48.726;9.006;2023-12-22T15:19:11;8.60;99.90
9466;DHT22;4771;48.726;9.006;2023-12-22T15:21:38;8.60;99.90
9466;DHT22;4771;48.726;9.006;2023-12-22T15:24:05;8.60;99.90
9466;DHT22;4771;48.726;9.006;2023-12-22T15:26:32;8.60;99.90
9466;DHT22;4771;48.726;9.006;2023-12-22T15:29:00;8.60;99.90
9466;DHT22;4771;48.726;9.006;2023-12-22T15:31:27;8.60;99.90
9466;DHT22;4771;48.726;9.006;2023-12-22T15:33:55;8.60;99.90
9466;DHT22;4771;48.726;9.006;2023-12-22T15:36:23;8.60;99.90
9466;DHT22;4771;48.726;9.006;2023-12-22T15:38:51;8.60;99.90
9466;DHT22;4771;48.726;9.006;2023-12-22T15:41:18;8.60;99.90
9466;DHT22;4771;48.726;9.006;2023-12-22T15:43:45;8.60;99.90
9466;DHT22;4771;48.726;9.006;2023-12-22T15:46:12;8.70;99.90
9466;DHT22;4771;48.726;9.006;2023-12-22T15:48:39;8.70;99.90
9466;DHT22;4771;48.726;9.006;2023-12-22T15:51:06;8.70;99.90
9466;DHT22;4771;48.726;9.006;2023-12-22T15:53:36;8.70;99.90
9466;DHT22;4771;48.726;9.006;2023-12-22T15:56:04;8.60;99.90
9466;DHT22;4771;48.726;9.006;2023-12-22T15:58:31;8.60;99.90
9466;DHT22;4771;48.726;9.006;2023-12-22T16:00:59;8.60;99.90
9466;DHT22;4771;48.726;9.006;2023-12-22T16:03:26;8.60;99.90
9466;DHT22;4771;48.726;9.006;2023-12-22T16:05:53;8.70;99.90
9466;DHT22;4771;48.726;9.006;2023-12-22T16:08:20;8.70;99.90
9466;DHT22;4771;48.726;9.006;2023-12-22T16:10:49;8.70;99.90
9466;DHT22;4771;48.726;9.006;2023-12-22T16:13:15;8.70;99.90
9466;DHT22;4771;48.726;9.006;2023-12-22T16:15:42;8.70;99.90
9466;DHT22;4771;48.726;9.006;2023-12-22T16:18:09;8.70;99.90
9466;DHT22;4771;48.726;9.006;2023-12-22T16:20:36;8.60;99.90
9466;DHT22;4771;48.726;9.006;2023-12-22T16:23:03;8.70;99.90
9466;DHT22;4771;48.726;9.006;2023-12-22T16:25:31;8.70;99.90